Time;durP1;ratioP1;P1;durP2;ratioP2;P2;SDS_P1;SDS_P2;PMS_P1;PMS_P2;Temp;Humidity;BMP_temperature;BMP_pressure;BME280_temperature;BME280_humidity;BME280_pressure;Samples;Min_cycle;Max_cycle;Signal;HPM_P1;HPM_P2
2023/09/06 00:01:49;;;;;;;;;2.00;2.00;;;;;24.90;51.53;101668.48;110192;1251;22023;-37
2023/09/06 00:04:17;;;;;;;;;4.00;4.00;;;;;24.89;51.44;101666.84;110207;1265;18745;-37
2023/09/06 00:06:44;;;;;;;;;2.00;2.00;;;;;24.90;51.55;101670.29;110209;1251;21011;-36
2023/09/06 00:09:11;;;;;;;;;3.00;3.00;;;;;24.91;51.40;101671.23;110202;1250;19678;-36
2023/09/06 00:11:39;;;;;;;;;2.00;2.00;;;;;24.90;51.37;101676.20;110201;1251;20062;-37
2023/09/06 00:14:06;;;;;;;;;2.00;2.00;;;;;24.90;51.39;101673.25;110206;1251;20779;-37
2023/09/06 00:16:34;;;;;;;;;2.00;2.00;;;;;24.87;51.41;101672.70;110205;1250;21742;-37
2023/09/06 00:19:01;;;;;;;;;2.00;2.00;;;;;24.87;51.50;101670.02;110199;1265;19864;-37
2023/09/06 00:21:29;;;;;;;;;2.00;2.00;;;;;24.88;51.58;101668.59;110200;1253;20746;-36
2023/09/06 00:23:56;;;;;;;;;2.00;2.00;;;;;24.88;51.32;101667.27;110212;1265;19865;-37
2023/09/06 00:26:26;;;;;;;;;2.00;2.00;;;;;24.88;51.31;101667.60;110224;1265;18672;-37
2023/09/06 00:28:54;;;;;;;;;2.00;2.00;;;;;24.88;51.48;101671.44;109934;1251;395008;-36
2023/09/06 00:31:21;;;;;;;;;3.00;2.00;;;;;24.86;51.63;101669.24;110220;1260;19617;-36
2023/09/06 00:33:49;;;;;;;;;2.00;2.00;;;;;24.86;51.49;101664.75;110196;1257;23893;-37
2023/09/06 00:36:16;;;;;;;;;2.00;2.00;;;;;24.87;51.41;101663.33;110184;1260;20872;-37
2023/09/06 00:38:43;;;;;;;;;1.50;1.50;;;;;24.88;51.52;101663.66;110180;1265;18497;-37
2023/09/06 00:41:11;;;;;;;;;2.00;2.00;;;;;24.89;51.51;101664.42;110203;1260;21038;-37
2023/09/06 00:43:38;;;;;;;;;2.00;2.00;;;;;24.85;51.54;101671.05;110183;1250;19235;-37
2023/09/06 00:46:07;;;;;;;;;2.67;2.00;;;;;24.87;51.66;101672.64;110134;1251;19610;-37
2023/09/06 00:48:35;;;;;;;;;4.00;4.00;;;;;24.87;51.41;101676.48;110131;1260;19935;-36
2023/09/06 00:51:03;;;;;;;;;2.00;2.00;;;;;24.86;51.29;101674.23;110160;1251;20890;-37
2023/09/06 00:53:31;;;;;;;;;2.00;2.00;;;;;24.86;51.62;101671.72;110252;1251;19634;-37
2023/09/06 00:55:59;;;;;;;;;2.00;2.00;;;;;24.85;51.40;101675.50;110256;1265;22825;-37
2023/09/06 00:58:27;;;;;;;;;2.00;2.00;;;;;24.84;51.40;101672.64;110180;1251;20761;-37
2023/09/06 01:00:54;;;;;;;;;2.00;2.00;;;;;24.86;51.52;101669.80;110159;1265;18971;-37
2023/09/06 01:03:21;;;;;;;;;2.00;2.00;;;;;24.84;51.61;101674.52;110168;1251;20008;-37
2023/09/06 01:05:49;;;;;;;;;2.00;2.00;;;;;24.83;51.50;101674.52;110166;1265;19464;-36
2023/09/06 01:08:18;;;;;;;;;2.00;2.00;;;;;24.87;51.18;101671.17;110202;1251;19667;-37
2023/09/06 01:10:45;;;;;;;;;2.00;2.00;;;;;24.89;51.33;101671.16;110179;1259;19918;-37
2023/09/06 01:13:13;;;;;;;;;1.00;1.00;;;;;24.89;51.34;101668.75;110198;1250;21598;-37
2023/09/06 01:15:40;;;;;;;;;2.00;2.00;;;;;24.88;51.13;101667.70;110180;1250;19651;-37
2023/09/06 01:18:07;;;;;;;;;2.00;2.00;;;;;24.88;51.32;101665.36;110175;1265;18767;-37
2023/09/06 01:20:36;;;;;;;;;2.00;2.00;;;;;24.87;51.20;101662.89;110182;1251;20797;-37
2023/09/06 01:23:03;;;;;;;;;2.00;1.00;;;;;24.87;51.31;101666.11;110205;1253;19638;-37
2023/09/06 01:25:31;;;;;;;;;2.00;2.00;;;;;24.88;51.19;101660.42;110187;1251;20078;-38
2023/09/06 01:27:58;;;;;;;;;2.00;2.00;;;;;24.88;51.16;101659.00;110172;1265;22288;-37
2023/09/06 01:30:25;;;;;;;;;2.00;2.00;;;;;24.87;51.29;101662.73;110184;1265;18288;-37
2023/09/06 01:32:52;;;;;;;;;2.00;2.00;;;;;24.87;51.23;101662.50;110189;1257;19989;-38
2023/09/06 01:35:20;;;;;;;;;2.00;2.00;;;;;24.87;51.40;101659.55;110178;1259;20856;-38
2023/09/06 01:37:50;;;;;;;;;2.00;2.00;;;;;24.86;51.51;101656.70;110181;1265;20016;-37
2023/09/06 01:40:19;;;;;;;;;2.00;2.00;;;;;24.88;51.23;101651.98;110155;1265;19192;-38
2023/09/06 01:42:47;;;;;;;;;2.00;2.00;;;;;24.85;51.37;101654.16;110202;1253;20808;-37
2023/09/06 01:45:17;;;;;;;;;2.00;2.00;;;;;24.87;51.24;101651.44;110176;1249;19972;-38
2023/09/06 01:47:45;;;;;;;;;2.00;2.00;;;;;24.85;51.26;101653.84;110174;1250;20199;-38
2023/09/06 01:50:12;;;;;;;;;2.00;2.00;;;;;24.86;51.20;101652.04;110210;1249;19386;-38
2023/09/06 01:52:40;;;;;;;;;2.00;2.00;;;;;24.86;51.33;101650.17;110157;1251;19645;-37
2023/09/06 01:55:07;;;;;;;;;2.00;2.00;;;;;24.87;51.09;101654.28;110170;1257;19986;-36
2023/09/06 01:57:35;;;;;;;;;2.00;2.00;;;;;24.88;51.04;101658.23;110151;1265;20974;-36
2023/09/06 02:00:16;;;;;;;;;2.00;2.00;;;;;24.85;51.26;101653.52;110160;1257;18553;-37
2023/09/06 02:02:43;;;;;;;;;2.00;2.00;;;;;24.84;51.31;101653.19;110182;1265;20012;-37
2023/09/06 02:05:10;;;;;;;;;2.00;2.00;;;;;24.83;51.27;101654.79;110182;1251;21273;-37
2023/09/06 02:07:38;;;;;;;;;2.00;2.00;;;;;24.85;51.21;101652.36;110220;1250;19725;-37
2023/09/06 02:10:05;;;;;;;;;3.00;3.00;;;;;24.85;51.17;101654.51;110200;1251;20796;-36
2023/09/06 02:12:32;;;;;;;;;3.00;2.00;;;;;24.84;51.05;101655.21;110195;1265;20962;-36
2023/09/06 02:15:00;;;;;;;;;3.00;3.00;;;;;24.85;51.17;101654.67;110167;1251;19652;-37
2023/09/06 02:17:27;;;;;;;;;2.00;2.00;;;;;24.84;51.16;101659.23;110187;1251;20067;-37
2023/09/06 02:19:55;;;;;;;;;2.33;2.33;;;;;24.82;51.36;101663.83;110197;1265;19390;-35
2023/09/06 02:22:22;;;;;;;;;2.00;2.00;;;;;24.84;51.24;101665.63;110175;1257;18401;-36
2023/09/06 02:24:49;;;;;;;;;2.00;2.00;;;;;24.83;51.23;101665.58;110191;1250;20019;-37
2023/09/06 02:27:17;;;;;;;;;2.00;2.00;;;;;24.81;51.36;101664.60;110169;1265;19457;-37
2023/09/06 02:29:44;;;;;;;;;2.00;2.00;;;;;24.78;51.46;101667.11;110179;1265;22380;-37
2023/09/06 02:32:11;;;;;;;;;2.00;2.00;;;;;24.79;51.32;101669.31;110181;1265;18781;-37
2023/09/06 02:34:39;;;;;;;;;2.00;2.00;;;;;24.78;51.49;101666.46;110068;1250;20866;-37
2023/09/06 02:37:06;;;;;;;;;2.00;2.00;;;;;24.79;51.43;101668.65;110199;1250;18382;-37
2023/09/06 02:39:34;;;;;;;;;2.00;2.00;;;;;24.80;51.19;101670.73;110208;1265;19650;-36
2023/09/06 02:42:01;;;;;;;;;2.00;2.00;;;;;24.79;51.39;101671.23;110151;1250;19554;-36
2023/09/06 02:44:28;;;;;;;;;3.00;3.00;;;;;24.81;51.32;101672.70;110151;1251;19711;-36
2023/09/06 02:46:55;;;;;;;;;2.00;2.00;;;;;24.79;51.39;101674.02;110142;1265;21699;-36
2023/09/06 02:49:26;;;;;;;;;2.00;2.00;;;;;24.78;51.28;101673.20;110159;1265;19477;-37
2023/09/06 02:51:53;;;;;;;;;2.00;2.00;;;;;24.79;51.25;101672.27;110190;1265;18354;-37
2023/09/06 02:54:20;;;;;;;;;2.00;2.00;;;;;24.80;51.29;101674.58;110168;1253;20072;-37
2023/09/06 02:56:48;;;;;;;;;2.00;2.00;;;;;24.79;51.20;101670.35;110175;1265;19576;-37
2023/09/06 02:59:15;;;;;;;;;2.00;2.00;;;;;24.80;51.25;101667.45;110128;1253;20731;-37
2023/09/06 03:01:44;;;;;;;;;3.00;2.00;;;;;24.81;51.11;101670.69;110193;1265;18677;-37
2023/09/06 03:04:13;;;;;;;;;2.00;2.00;;;;;24.81;51.17;101674.46;110162;1250;20790;-37
2023/09/06 03:06:43;;;;;;;;;2.00;2.00;;;;;24.80;51.29;101677.96;110199;1249;19550;-37
2023/09/06 03:09:10;;;;;;;;;2.00;2.00;;;;;24.82;51.14;101674.90;110182;1265;18582;-36
2023/09/06 03:11:37;;;;;;;;;2.00;2.00;;;;;24.81;51.21;101671.98;110194;1265;19232;-36
2023/09/06 03:14:05;;;;;;;;;4.00;4.00;;;;;24.81;51.10;101670.29;110171;1250;21114;-36
2023/09/06 03:16:38;;;;;;;;;2.00;2.00;;;;;24.79;51.24;101668.11;110173;1257;19976;-36
2023/09/06 03:19:09;;;;;;;;;2.00;2.00;;;;;24.82;51.00;101674.56;110148;1251;20952;-37
2023/09/06 03:21:36;;;;;;;;;2.00;2.00;;;;;24.82;51.10;101674.29;110169;1252;19708;-37
2023/09/06 03:24:06;;;;;;;;;3.00;2.00;;;;;24.81;51.22;101673.14;110166;1251;20043;-37
2023/09/06 03:26:36;;;;;;;;;2.50;2.50;;;;;24.80;51.34;101674.13;110159;1265;19376;-36
2023/09/06 03:29:03;;;;;;;;;2.00;2.00;;;;;24.80;51.30;101673.36;110168;1251;19667;-36
2023/09/06 03:31:33;;;;;;;;;2.00;2.00;;;;;24.81;51.08;101675.40;110180;1259;22238;-37
2023/09/06 03:34:01;;;;;;;;;3.00;3.00;;;;;24.82;51.03;101677.36;110194;1265;20975;-37
2023/09/06 03:36:29;;;;;;;;;2.00;2.00;;;;;24.82;51.10;101679.34;110186;1250;19586;-37
2023/09/06 03:38:57;;;;;;;;;2.00;2.00;;;;;24.83;50.93;101676.65;110167;1251;19898;-37
2023/09/06 03:41:24;;;;;;;;;2.00;2.00;;;;;24.84;51.15;101675.06;110181;1251;22753;-37
2023/09/06 03:43:53;;;;;;;;;3.00;3.00;;;;;24.82;51.05;101675.98;110189;1250;20919;-37
2023/09/06 03:46:22;;;;;;;;;2.00;2.00;;;;;24.83;50.93;101675.55;110203;1259;20092;-36
2023/09/06 03:48:49;;;;;;;;;2.00;2.00;;;;;24.82;50.91;101676.05;110196;1250;21177;-37
2023/09/06 03:51:17;;;;;;;;;2.00;2.00;;;;;24.81;51.16;101675.05;110197;1265;18419;-37
2023/09/06 03:53:46;;;;;;;;;3.00;3.00;;;;;24.81;51.06;101670.13;110162;1265;18617;-37
2023/09/06 03:56:14;;;;;;;;;2.00;2.00;;;;;24.80;51.03;101673.86;110183;1265;19369;-38
2023/09/06 03:58:42;;;;;;;;;2.00;2.00;;;;;24.78;51.13;101674.35;110150;1266;18466;-35
2023/09/06 04:01:10;;;;;;;;;2.00;2.00;;;;;24.80;51.18;101676.59;110159;1265;18631;-36
2023/09/06 04:03:40;;;;;;;;;2.00;2.00;;;;;24.80;51.11;101682.35;110139;1251;20851;-36
2023/09/06 04:06:08;;;;;;;;;3.00;3.00;;;;;24.79;51.18;101682.56;110133;1265;19843;-35
2023/09/06 04:08:36;;;;;;;;;3.00;2.00;;;;;24.79;50.96;101681.86;110194;1265;18640;-37
2023/09/06 04:11:04;;;;;;;;;2.00;2.00;;;;;24.76;51.07;101679.02;110117;1253;20766;-36
2023/09/06 04:13:33;;;;;;;;;2.00;2.00;;;;;24.76;51.17;101681.09;110120;1250;18705;-36
2023/09/06 04:16:00;;;;;;;;;2.00;2.00;;;;;24.76;50.99;101679.89;110189;1250;20189;-37
2023/09/06 04:18:28;;;;;;;;;3.33;3.33;;;;;24.71;51.39;101679.73;110198;1251;20847;-36
2023/09/06 04:20:59;;;;;;;;;2.00;2.00;;;;;24.71;51.40;101683.13;110135;1259;19675;-37
2023/09/06 04:23:27;;;;;;;;;4.00;4.00;;;;;24.68;51.54;101681.86;110068;1265;21047;-38
2023/09/06 04:25:55;;;;;;;;;4.00;4.00;;;;;24.73;51.39;101681.27;110188;1265;20570;-36
2023/09/06 04:28:22;;;;;;;;;4.00;4.00;;;;;24.73;51.12;101681.59;110175;1265;18400;-36
2023/09/06 04:30:51;;;;;;;;;4.00;4.00;;;;;24.75;51.14;101683.61;110209;1265;18648;-37
2023/09/06 04:33:18;;;;;;;;;4.00;4.00;;;;;24.75;50.93;101687.45;110166;1259;19507;-36
2023/09/06 04:35:46;;;;;;;;;4.00;4.00;;;;;24.75;50.80;101681.52;110065;1251;19679;-37
2023/09/06 04:38:14;;;;;;;;;4.00;4.00;;;;;24.75;50.65;101685.04;110166;1251;20127;-36
2023/09/06 04:40:44;;;;;;;;;24.00;23.00;;;;;24.73;49.68;101683.39;110190;1251;20802;-36
2023/09/06 04:43:11;;;;;;;;;20.00;17.00;;;;;24.42;47.43;101678.84;110155;1265;22761;-37
2023/09/06 04:45:39;;;;;;;;;18.00;18.00;;;;;24.33;48.06;101679.92;110170;1265;18692;-35
2023/09/06 04:48:08;;;;;;;;;20.00;17.00;;;;;24.39;48.23;101680.80;110192;1251;21880;-38
2023/09/06 04:50:37;;;;;;;;;18.00;18.00;;;;;24.32;47.92;101682.45;110167;1251;20101;-38
2023/09/06 04:53:04;;;;;;;;;20.00;20.00;;;;;24.31;48.12;101679.04;110091;1265;18610;-37
2023/09/06 04:55:35;;;;;;;;;28.50;24.00;;;;;24.28;47.48;101682.16;110185;1251;20811;-37
2023/09/06 04:58:02;;;;;;;;;25.00;23.00;;;;;24.24;47.40;101680.53;110249;1250;21081;-36
2023/09/06 05:00:32;;;;;;;;;24.67;22.33;;;;;24.26;47.30;101684.66;110213;1250;20352;-37
2023/09/06 05:03:00;;;;;;;;;19.00;17.50;;;;;24.27;47.22;101686.04;110182;1251;20762;-35
2023/09/06 05:05:27;;;;;;;;;22.00;20.00;;;;;24.30;47.51;101689.11;110224;1250;22781;-36
2023/09/06 05:07:55;;;;;;;;;18.67;18.33;;;;;24.28;47.06;101690.48;110200;1250;20164;-36
2023/09/06 05:10:22;;;;;;;;;21.00;21.00;;;;;24.23;46.85;101693.45;110197;1250;20820;-37
2023/09/06 05:12:50;;;;;;;;;21.00;20.00;;;;;24.22;46.33;101691.48;110226;1251;20060;-38
2023/09/06 05:15:17;;;;;;;;;86.50;62.00;;;;;24.19;45.98;101693.71;110194;1250;20187;-38
2023/09/06 05:17:44;;;;;;;;;383.00;277.00;;;;;24.29;46.55;101692.84;110182;1250;20765;-37
2023/09/06 05:20:11;;;;;;;;;887.00;751.00;;;;;24.29;47.32;101693.92;110187;1264;22748;-37
2023/09/06 05:22:39;;;;;;;;;1911.00;1802.50;;;;;24.36;47.37;101692.09;110185;1251;20247;-38
2023/09/06 05:25:06;;;;;;;;;481.00;340.00;;;;;24.45;47.26;101694.45;110187;1264;20697;-37
2023/09/06 05:27:34;;;;;;;;;458.50;316.50;;;;;24.58;46.93;101695.11;110218;1248;20768;-37
2023/09/06 05:30:01;;;;;;;;;262.33;180.67;;;;;24.65;47.13;101701.42;110190;1250;21425;-38
2023/09/06 05:32:28;;;;;;;;;67.00;53.50;;;;;24.61;45.84;101703.29;110183;1251;23283;-36
2023/09/06 05:34:56;;;;;;;;;50.00;41.00;;;;;24.38;45.19;101696.20;110209;1264;18920;-36
2023/09/06 05:37:24;;;;;;;;;34.00;31.00;;;;;24.06;44.64;101703.27;110194;1251;22219;-37
2023/09/06 05:39:51;;;;;;;;;45.00;41.00;;;;;23.53;45.77;101704.88;110229;1250;20656;-37
2023/09/06 05:42:19;;;;;;;;;29.67;29.33;;;;;23.19;46.92;101704.95;110197;1256;23171;-37
2023/09/06 05:44:46;;;;;;;;;38.33;35.00;;;;;23.03;47.34;101712.65;110175;1265;20089;-36
2023/09/06 05:47:13;;;;;;;;;39.00;34.00;;;;;22.84;47.71;101717.81;110177;1259;20894;-37
2023/09/06 05:49:41;;;;;;;;;28.00;26.50;;;;;22.80;47.56;101717.77;110182;1256;22233;-36
2023/09/06 05:52:08;;;;;;;;;29.00;26.00;;;;;23.17;47.25;101717.73;110192;1264;20107;-36
2023/09/06 05:54:36;;;;;;;;;24.00;23.50;;;;;23.52;47.18;101716.05;110203;1265;19545;-36
2023/09/06 05:57:04;;;;;;;;;21.50;21.00;;;;;23.73;47.05;101715.79;110194;1256;18679;-37
2023/09/06 05:59:31;;;;;;;;;28.00;26.00;;;;;23.88;46.74;101718.80;110236;1251;20165;-36
2023/09/06 06:01:59;;;;;;;;;;;;;;;23.90;46.32;101716.84;110209;1257;20728;-37
2023/09/06 06:04:26;;;;;;;;;25.00;23.00;;;;;23.89;46.35;101716.89;110180;1251;18574;-38
2023/09/06 06:06:54;;;;;;;;;23.00;23.00;;;;;24.00;45.78;101715.89;110195;1250;20040;-38
2023/09/06 06:09:24;;;;;;;;;24.00;20.00;;;;;23.92;45.84;101717.08;110200;1250;20748;-37
2023/09/06 06:11:53;;;;;;;;;20.00;20.00;;;;;23.81;45.80;101716.36;110182;1250;20086;-36
2023/09/06 06:14:20;;;;;;;;;24.00;22.50;;;;;23.84;45.99;101718.08;110170;1250;20245;-37
2023/09/06 06:16:47;;;;;;;;;25.00;22.33;;;;;23.82;45.96;101723.11;110295;1251;21217;-36
2023/09/06 06:19:15;;;;;;;;;22.50;21.00;;;;;23.82;45.92;101727.70;110282;1250;20017;-36
2023/09/06 06:21:43;;;;;;;;;20.50;20.00;;;;;23.76;46.25;101732.39;110297;1251;20125;-38
2023/09/06 06:24:10;;;;;;;;;25.00;22.00;;;;;23.67;46.19;101731.67;110249;1249;22597;-35
2023/09/06 06:26:37;;;;;;;;;23.00;20.00;;;;;23.80;45.87;101733.93;110188;1265;21733;-37
2023/09/06 06:29:05;;;;;;;;;24.50;22.00;;;;;23.83;46.01;101738.16;110197;1250;20223;-38
2023/09/06 06:31:32;;;;;;;;;26.00;20.50;;;;;23.79;46.06;101739.51;110203;1251;22053;-37
2023/09/06 06:33:59;;;;;;;;;27.50;24.00;;;;;23.76;45.88;101744.91;110220;1264;18613;-38
2023/09/06 06:36:27;;;;;;;;;26.00;22.00;;;;;23.81;45.84;101742.58;110224;1250;20120;-37
2023/09/06 06:38:54;;;;;;;;;23.50;21.00;;;;;23.85;45.52;101747.52;110209;1250;20834;-37
2023/09/06 06:41:22;;;;;;;;;26.00;23.00;;;;;23.88;45.82;101750.00;110221;1251;20059;-37
2023/09/06 06:43:50;;;;;;;;;23.67;23.33;;;;;23.93;45.73;101747.39;110218;1250;20209;-37
2023/09/06 06:46:17;;;;;;;;;26.50;22.50;;;;;23.99;45.52;101748.13;110239;1251;20752;-38
2023/09/06 06:48:45;;;;;;;;;22.50;22.00;;;;;24.08;45.62;101743.84;110237;1257;19035;-38
2023/09/06 06:51:12;;;;;;;;;23.50;19.50;;;;;24.19;45.59;101744.53;110237;1250;18744;-37
2023/09/06 06:53:40;;;;;;;;;24.00;23.00;;;;;24.22;45.81;101742.84;110227;1264;22092;-38
2023/09/06 06:56:07;;;;;;;;;21.00;21.00;;;;;24.26;45.96;101746.20;110236;1264;18592;-38
2023/09/06 06:58:34;;;;;;;;;26.00;23.00;;;;;24.30;46.17;101747.49;110213;1250;20214;-38
2023/09/06 07:01:02;;;;;;;;;24.00;24.00;;;;;24.35;45.82;101748.82;110218;1264;19525;-38
2023/09/06 07:03:30;;;;;;;;;23.00;22.00;;;;;24.33;45.99;101746.02;110187;1264;18587;-38
2023/09/06 07:05:58;;;;;;;;;23.00;20.00;;;;;24.33;46.18;101745.59;110204;1251;21184;-38
2023/09/06 07:08:26;;;;;;;;;20.00;20.00;;;;;24.36;46.35;101748.38;110217;1264;19416;-37
2023/09/06 07:10:53;;;;;;;;;23.50;21.00;;;;;24.40;45.85;101747.90;110199;1250;19987;-37
2023/09/06 07:13:21;;;;;;;;;21.00;20.00;;;;;24.47;45.84;101751.64;110189;1251;20221;-38
2023/09/06 07:15:48;;;;;;;;;19.00;19.00;;;;;24.56;45.76;101750.45;110209;1249;23826;-38
2023/09/06 07:18:16;;;;;;;;;21.00;20.00;;;;;24.62;45.86;101751.45;110204;1250;20072;-37
2023/09/06 07:20:43;;;;;;;;;20.00;17.00;;;;;24.68;45.97;101754.58;110203;1265;18665;-37
2023/09/06 07:23:10;;;;;;;;;19.00;19.00;;;;;24.72;45.83;101757.92;110214;1250;21968;-37
2023/09/06 07:25:39;;;;;;;;;20.00;20.00;;;;;24.77;45.79;101756.55;110166;1265;18627;-37
2023/09/06 07:28:06;;;;;;;;;25.00;23.00;;;;;24.81;45.55;101758.98;110177;1265;18846;-36
2023/09/06 07:30:34;;;;;;;;;25.00;22.00;;;;;24.86;45.96;101762.54;110168;1251;20801;-37
2023/09/06 07:33:01;;;;;;;;;24.00;21.00;;;;;24.91;46.23;101763.25;110181;1256;18588;-37
2023/09/06 07:35:28;;;;;;;;;18.00;18.00;;;;;24.98;46.17;101762.13;110184;1250;20219;-36
2023/09/06 07:37:56;;;;;;;;;20.00;17.00;;;;;25.03;46.18;101761.48;110184;1257;20637;-39
2023/09/06 07:40:23;;;;;;;;;17.00;17.00;;;;;25.04;46.18;101760.33;110192;1250;21313;-38
2023/09/06 07:42:50;;;;;;;;;18.00;17.00;;;;;25.06;46.20;101766.35;110186;1265;18696;-37
2023/09/06 07:45:18;;;;;;;;;18.00;18.00;;;;;25.08;46.03;101768.55;110206;1265;19392;-37
2023/09/06 07:47:45;;;;;;;;;15.00;13.00;;;;;25.10;46.19;101771.29;110208;1259;21124;-38
2023/09/06 07:50:12;;;;;;;;;17.00;15.00;;;;;25.13;46.23;101768.27;110182;1257;20128;-38
2023/09/06 07:52:40;;;;;;;;;18.00;17.50;;;;;25.14;46.08;101766.62;110190;1250;22003;-38
2023/09/06 07:55:07;;;;;;;;;17.50;16.50;;;;;25.15;45.93;101765.30;110220;1250;19978;-37
2023/09/06 07:57:34;;;;;;;;;15.00;14.00;;;;;25.17;45.97;101770.63;110183;1264;19191;-38
2023/09/06 08:00:04;;;;;;;;;14.33;13.33;;;;;25.19;46.20;101767.16;110183;1265;19579;-38
2023/09/06 08:02:31;;;;;;;;;17.00;16.00;;;;;25.22;46.39;101769.52;110218;1250;19985;-38
2023/09/06 08:04:58;;;;;;;;;14.00;13.00;;;;;25.23;46.44;101770.73;110141;1264;18690;-37
2023/09/06 08:07:26;;;;;;;;;14.00;13.00;;;;;25.25;46.48;101773.14;110165;1251;21799;-37
2023/09/06 08:09:53;;;;;;;;;14.00;14.00;;;;;25.28;46.47;101776.11;110255;1265;21696;-37
2023/09/06 08:12:20;;;;;;;;;15.00;14.00;;;;;25.31;46.35;101778.56;110228;1257;20040;-37
2023/09/06 08:14:48;;;;;;;;;15.00;14.00;;;;;25.32;45.96;101776.91;110198;1251;22501;-37
2023/09/06 08:17:15;;;;;;;;;11.67;11.00;;;;;25.28;46.15;101779.50;110192;1250;20046;-38
2023/09/06 08:19:42;;;;;;;;;14.00;13.50;;;;;25.30;46.19;101784.33;110205;1261;18682;-36
2023/09/06 08:22:10;;;;;;;;;13.00;13.00;;;;;25.33;46.06;101781.52;110187;1251;20750;-38
2023/09/06 08:24:38;;;;;;;;;13.00;12.00;;;;;25.32;46.08;101784.48;110197;1250;18540;-38
2023/09/06 08:27:05;;;;;;;;;15.00;15.00;;;;;25.34;46.00;101783.45;110187;1264;20345;-38
2023/09/06 08:29:32;;;;;;;;;13.67;13.00;;;;;25.33;45.83;101783.23;110180;1250;20765;-38
2023/09/06 08:32:00;;;;;;;;;13.00;13.00;;;;;25.33;45.85;101787.06;110172;1265;19775;-38
2023/09/06 08:34:27;;;;;;;;;15.00;14.00;;;;;25.34;45.91;101788.88;110187;1265;22598;-37
2023/09/06 08:36:56;;;;;;;;;15.00;14.00;;;;;25.34;46.00;101793.70;110160;1259;20797;-38
2023/09/06 08:39:23;;;;;;;;;11.00;11.00;;;;;25.35;46.11;101796.71;110170;1259;20037;-38
2023/09/06 08:41:51;;;;;;;;;13.00;13.00;;;;;25.35;46.04;101795.89;110210;1259;20163;-38
2023/09/06 08:44:20;;;;;;;;;14.00;13.00;;;;;25.37;46.02;101795.52;110186;1251;20788;-38
2023/09/06 08:46:47;;;;;;;;;15.00;13.00;;;;;25.37;46.07;101794.30;110164;1265;19961;-36
2023/09/06 08:49:14;;;;;;;;;14.00;13.50;;;;;25.38;45.88;101796.66;110188;1259;20167;-38
2023/09/06 08:51:42;;;;;;;;;10.50;10.50;;;;;25.39;45.86;101794.35;110158;1252;20821;-37
2023/09/06 08:54:09;;;;;;;;;12.00;12.00;;;;;25.37;46.17;101796.49;110180;1257;19890;-37
2023/09/06 08:56:37;;;;;;;;;13.00;13.00;;;;;25.39;45.91;101792.70;110205;1250;20234;-37
2023/09/06 08:59:04;;;;;;;;;14.00;13.00;;;;;25.38;46.02;101793.26;110208;1251;21885;-37
2023/09/06 09:01:31;;;;;;;;;13.00;13.00;;;;;25.36;46.15;101798.35;110167;1265;18651;-38
2023/09/06 09:03:59;;;;;;;;;14.00;13.50;;;;;25.36;46.14;101801.05;110205;1259;21046;-37
2023/09/06 09:06:28;;;;;;;;;18.00;15.00;;;;;25.36;46.07;101801.98;110174;1257;19362;-37
2023/09/06 09:08:55;;;;;;;;;11.00;10.50;;;;;25.36;45.95;101801.65;110182;1251;20034;-37
2023/09/06 09:11:22;;;;;;;;;;;;;;;25.36;46.03;101804.45;110209;1265;18775;-37
2023/09/06 09:13:50;;;;;;;;;14.00;13.00;;;;;25.33;46.26;101799.68;110210;1252;20775;-37
2023/09/06 09:16:17;;;;;;;;;11.00;11.00;;;;;25.32;46.25;101802.92;110188;1250;18529;-37
2023/09/06 09:18:44;;;;;;;;;13.50;10.50;;;;;25.32;46.60;101804.34;110197;1251;20206;-37
2023/09/06 09:21:12;;;;;;;;;11.00;10.50;;;;;25.34;46.61;101804.07;110226;1250;20894;-37
2023/09/06 09:23:39;;;;;;;;;14.50;12.00;;;;;25.35;46.76;101804.95;110167;1265;18635;-37
2023/09/06 09:26:06;;;;;;;;;12.33;12.33;;;;;25.35;46.54;101804.67;110183;1265;22420;-38
2023/09/06 09:28:34;;;;;;;;;12.50;10.50;;;;;25.35;46.86;101807.20;110201;1265;19502;-37
2023/09/06 09:31:01;;;;;;;;;10.50;10.50;;;;;25.35;47.02;101802.15;110207;1265;18615;-36
2023/09/06 09:33:29;;;;;;;;;13.00;13.00;;;;;25.35;46.94;101803.14;110208;1251;20806;-36
2023/09/06 09:35:56;;;;;;;;;10.00;10.00;;;;;25.34;47.14;101805.77;110218;1251;20798;-36
2023/09/06 09:38:24;;;;;;;;;14.00;12.00;;;;;25.31;47.35;101803.46;110197;1251;20046;-38
2023/09/06 09:40:51;;;;;;;;;10.00;9.00;;;;;25.28;47.27;101804.30;110176;1251;21351;-37
2023/09/06 09:43:19;;;;;;;;;12.33;12.33;;;;;25.29;47.56;101804.29;110215;1263;20831;-36
2023/09/06 09:45:46;;;;;;;;;13.00;11.00;;;;;25.31;47.77;101800.50;110174;1265;22111;-37
2023/09/06 09:48:14;;;;;;;;;10.00;9.67;;;;;25.34;47.83;101802.42;110186;1253;20454;-37
2023/09/06 09:50:42;;;;;;;;;13.00;13.00;;;;;25.33;47.60;101804.07;110182;1251;20789;-37
2023/09/06 09:53:09;;;;;;;;;11.00;11.00;;;;;25.34;47.53;101809.23;110097;1250;20029;-38
2023/09/06 09:55:36;;;;;;;;;15.00;12.00;;;;;25.29;47.47;101805.61;110078;1265;20511;-37
2023/09/06 09:58:05;;;;;;;;;12.00;12.00;;;;;25.30;47.47;101800.17;110075;1250;19385;-38
2023/09/06 10:00:33;;;;;;;;;15.00;13.00;;;;;25.36;47.40;101800.99;110152;1265;18637;-37
2023/09/06 10:03:00;;;;;;;;;11.00;11.00;;;;;25.40;47.53;101798.85;110149;1251;20182;-37
2023/09/06 10:05:29;;;;;;;;;10.50;10.00;;;;;25.35;48.01;101796.38;110189;1265;20774;-37
2023/09/06 10:07:56;;;;;;;;;11.00;10.00;;;;;25.36;48.12;101792.60;110050;1265;20100;-37
2023/09/06 10:10:24;;;;;;;;;11.00;11.00;;;;;25.35;48.00;101794.25;110134;1251;20111;-36
2023/09/06 10:12:51;;;;;;;;;10.00;9.00;;;;;25.34;48.14;101790.69;110179;1265;22365;-36
2023/09/06 10:15:19;;;;;;;;;12.00;12.00;;;;;25.36;48.27;101788.82;110146;1265;22829;-36
2023/09/06 10:17:47;;;;;;;;;19.00;17.50;;;;;25.33;48.22;101789.80;110176;1252;20195;-36
2023/09/06 10:20:15;;;;;;;;;11.33;9.67;;;;;25.33;48.02;101789.80;110175;1250;22179;-37
2023/09/06 10:22:43;;;;;;;;;11.00;9.00;;;;;25.35;47.98;101789.70;110193;1251;20102;-37
2023/09/06 10:25:11;;;;;;;;;11.00;11.00;;;;;25.38;47.95;101790.79;110204;1265;18666;-35
2023/09/06 10:27:38;;;;;;;;;11.00;9.50;;;;;25.38;48.08;101786.95;110164;1257;19403;-38
2023/09/06 10:30:05;;;;;;;;;11.50;11.00;;;;;25.33;48.28;101785.96;110211;1250;19843;-37
2023/09/06 10:32:33;;;;;;;;;7.67;7.67;;;;;25.31;48.37;101779.60;110186;1251;20176;-36
2023/09/06 10:35:00;;;;;;;;;9.00;9.00;;;;;25.33;48.36;101776.48;110127;1250;22401;-37
2023/09/06 10:37:27;;;;;;;;;9.50;9.50;;;;;25.37;47.87;101771.92;110199;1251;19656;-37
2023/09/06 10:39:55;;;;;;;;;11.67;10.33;;;;;25.42;47.36;101767.64;110199;1251;20133;-37
2023/09/06 10:42:22;;;;;;;;;9.50;9.50;;;;;25.41;48.01;101766.27;110216;1251;22161;-36
2023/09/06 10:44:49;;;;;;;;;11.00;9.00;;;;;25.45;47.86;101765.27;110193;1259;20513;-37
2023/09/06 10:47:17;;;;;;;;;10.00;10.00;;;;;25.44;48.23;101762.46;110181;1265;18645;-37
2023/09/06 10:49:44;;;;;;;;;11.00;10.50;;;;;25.44;48.47;101759.23;110192;1265;19364;-37
2023/09/06 10:52:12;;;;;;;;;7.00;7.00;;;;;25.44;48.73;101763.18;110200;1259;20117;-37
2023/09/06 10:54:40;;;;;;;;;10.00;10.00;;;;;25.39;48.75;101765.77;110188;1250;19969;-36
2023/09/06 10:57:07;;;;;;;;;8.00;8.00;;;;;25.38;48.61;101763.69;110192;1250;22305;-37
2023/09/06 10:59:35;;;;;;;;;9.00;9.00;;;;;25.35;48.72;101768.85;110172;1265;21663;-37
2023/09/06 11:02:02;;;;;;;;;7.00;7.00;;;;;25.36;48.69;101769.55;110191;1250;19836;-37
2023/09/06 11:04:30;;;;;;;;;9.00;8.00;;;;;25.39;48.52;101769.55;110188;1250;19907;-37
2023/09/06 11:06:57;;;;;;;;;10.00;9.00;;;;;25.38;48.67;101768.52;110156;1265;18631;-38
2023/09/06 11:09:25;;;;;;;;;10.00;10.00;;;;;25.38;48.30;101769.77;110189;1249;18834;-38
2023/09/06 11:11:53;;;;;;;;;10.00;9.00;;;;;25.38;48.76;101769.23;110195;1265;19386;-36